Csl Melbourne — 8PWP — position and weather

sailwx.info

Track history (hours):
 
Tides and Currents Weather Stations Pressure Air Temp Water Temp Dewpoint Dewpoint Depression Visibility Wind Speed Wind Dir Waves Ship Positions

Csl Melbourne

Last reported at 2015-Jan-24 08:32 UTC. Time now 2015-Jan-26 22:29 UTC.
Position S 37°08' E 150°19'.

Length 187 m; draft 12.3 m.

Type: Cargo ship. MMSI: 314317000.

Date/timePositionNaut miles runAvg speedWind from/ knotsBaromVisibWave heightAir tempDewpointWater temp
2015-Jan-24 08:32S 37°08' E 150°19'1010.1
2015-Jan-24 07:33S 37°17' E 150°15'1110.8
2015-Jan-24 06:33S 37°27' E 150°09'1110.9
2015-Jan-24 05:33S 37°37' E 150°04'1111.3
2015-Jan-24 04:32S 37°47' E 149°57'1110.8
2015-Jan-24 03:33S 37°56' E 149°49'1111.0
2015-Jan-24 02:33S 38°03' E 149°38'14311.6
2015-Jan-23 14:18S 39°37' E 147°21'910.6
2015-Jan-23 13:30S 39°43' E 147°12'1011.0
2015-Jan-23 12:33S 39°49' E 147°02'1111.5
2015-Jan-23 11:33S 39°56' E 146°50'3012.1
2015-Jan-23 09:06S 40°15' E 146°20'55 4.8
2015-Jan-22 21:31S 40°50' E 145°23'0 0.0
2015-Jan-22 11:16S 40°50' E 145°23'0 0.0
2015-Jan-22 10:31S 40°50' E 145°23'0 0.0
2015-Jan-22 09:31S 40°50' E 145°23'0 0.0
2015-Jan-22 08:31S 40°50' E 145°23'2 0.2
2015-Jan-21 19:07S 40°48' E 145°25'0 0.0
2015-Jan-21 16:31S 40°48' E 145°25'0 0.0
2015-Jan-21 13:16S 40°48' E 145°25'0 0.0
2015-Jan-21 12:31S 40°48' E 145°25'0 0.0
2015-Jan-21 11:31S 40°48' E 145°25'0 0.0
2015-Jan-21 10:31S 40°48' E 145°25'0 0.0
2015-Jan-21 09:31S 40°48' E 145°25'0 0.0
2015-Jan-21 08:31S 40°48' E 145°25'0 0.0
2015-Jan-21 07:31S 40°48' E 145°25'0 0.0
2015-Jan-21 06:31S 40°48' E 145°25'0 0.0
2015-Jan-20 07:25S 40°48' E 145°25'0 0.0
2015-Jan-20 06:31S 40°48' E 145°25'0 0.0
2015-Jan-20 05:31S 40°48' E 145°25'0 0.0
2015-Jan-20 04:31S 40°48' E 145°25'0 0.0
2015-Jan-20 03:28S 40°48' E 145°25'71 1.4
2015-Jan-18 00:30S 39°55' E 146°26'1010.4
2015-Jan-17 23:33S 39°47' E 146°35'1010.1
2015-Jan-17 22:33S 39°40' E 146°43'9 9.5
2015-Jan-17 21:33S 39°33' E 146°51'9 9.4
2015-Jan-17 20:33S 39°26' E 146°60'10 9.8
2015-Jan-17 19:33S 39°19' E 147°09'10 9.4
2015-Jan-17 18:31S 39°12' E 147°18'8 8.8
2015-Jan-17 17:33S 39°06' E 147°26'8 8.0
2015-Jan-17 16:33S 39°01' E 147°33'60 6.6
2015-Jan-17 07:23S 38°31' E 148°40'6 7.2
2015-Jan-17 06:33S 38°27' E 148°46'7 7.1
2015-Jan-17 05:33S 38°23' E 148°53'5 4.9
2015-Jan-17 04:33S 38°20' E 148°58'19 8.9
2015-Jan-17 02:23S 38°07' E 149°17'16210.9
2015-Jan-16 11:33S 35°44' E 150°53'1413.7
2015-Jan-16 10:33S 35°31' E 150°57'6913.5
2015-Jan-16 05:25S 34°26' E 151°24'1213.2
2015-Jan-16 04:33S 34°15' E 151°29'5112.3
2015-Jan-16 00:25S 33°27' E 151°47'1012.2
2015-Jan-15 23:33S 33°17' E 151°52'1212.3
2015-Jan-15 22:34S 33°05' E 151°52'1110.5
2015-Jan-15 21:33S 32°55' E 151°48'2 1.8
2015-Jan-15 20:31S 32°54' E 151°46'0 0.0
2015-Jan-15 17:23S 32°54' E 151°46'0 0.0
2015-Jan-15 15:17S 32°54' E 151°46'0 0.0
2015-Jan-15 14:29S 32°54' E 151°46'0 0.0
2015-Jan-15 13:23S 32°54' E 151°46'0 0.0
2015-Jan-15 12:29S 32°54' E 151°46'0 0.0
2015-Jan-15 11:29S 32°54' E 151°46'0 0.0
2015-Jan-15 10:23S 32°54' E 151°46'0 0.0
2015-Jan-15 09:32S 32°54' E 151°46'0 0.0
2015-Jan-15 08:32S 32°54' E 151°46'0 0.0
2015-Jan-15 07:32S 32°54' E 151°46'0 0.0
2015-Jan-15 06:29S 32°54' E 151°46'0 0.0
2015-Jan-15 05:23S 32°54' E 151°46'0 0.0
2015-Jan-15 04:32S 32°54' E 151°46'0 0.0
2015-Jan-15 03:29S 32°54' E 151°46'0 0.0
2015-Jan-15 02:17S 32°54' E 151°46'0 0.0
2015-Jan-15 01:32S 32°54' E 151°46'0 0.0
2015-Jan-15 00:32S 32°54' E 151°46'0 0.0
2015-Jan-14 23:32S 32°54' E 151°46'0 0.0
2015-Jan-14 22:26S 32°54' E 151°46'0 0.0
2015-Jan-14 21:32S 32°54' E 151°46'0 0.0
2015-Jan-14 20:32S 32°54' E 151°46'0 0.0
2015-Jan-14 19:26S 32°54' E 151°46'0 0.0
2015-Jan-14 18:23S 32°54' E 151°46'0 0.0
2015-Jan-14 17:32S 32°54' E 151°46'0 0.0
2015-Jan-14 16:23S 32°54' E 151°46'0 0.0
2015-Jan-14 15:32S 32°54' E 151°46'0 0.0
2015-Jan-14 14:32S 32°54' E 151°46'0 0.0
2015-Jan-14 13:29S 32°54' E 151°46'0 0.0
2015-Jan-14 12:29S 32°54' E 151°46'0 0.0
2015-Jan-14 11:29S 32°54' E 151°46'0 0.0
2015-Jan-14 10:32S 32°54' E 151°46'0 0.0
2015-Jan-14 09:29S 32°54' E 151°46'  
Track history (hours):
 
Tides and Currents Weather Stations Pressure Air Temp Water Temp Dewpoint Dewpoint Depression Visibility Wind Speed Wind Dir Waves Ship Positions

Csl Melbourne

Last reported at 2015-Jan-24 08:32 UTC. Time now 2015-Jan-26 22:29 UTC.
Position S 37°08' E 150°19'.

Length 187 m; draft 12.3 m.

Type: Cargo ship. MMSI: 314317000.

Date/timePositionNaut miles runAvg speedWind from/ knotsBaromVisibWave heightAir tempDewpointWater temp
2015-Jan-24 08:32S 37°08' E 150°19'1010.1
2015-Jan-24 07:33S 37°17' E 150°15'1110.8
2015-Jan-24 06:33S 37°27' E 150°09'1110.9
2015-Jan-24 05:33S 37°37' E 150°04'1111.3
2015-Jan-24 04:32S 37°47' E 149°57'1110.8
2015-Jan-24 03:33S 37°56' E 149°49'1111.0
2015-Jan-24 02:33S 38°03' E 149°38'14311.6
2015-Jan-23 14:18S 39°37' E 147°21'910.6
2015-Jan-23 13:30S 39°43' E 147°12'1011.0
2015-Jan-23 12:33S 39°49' E 147°02'1111.5
2015-Jan-23 11:33S 39°56' E 146°50'3012.1
2015-Jan-23 09:06S 40°15' E 146°20'55 4.8
2015-Jan-22 21:31S 40°50' E 145°23'0 0.0
2015-Jan-22 11:16S 40°50' E 145°23'0 0.0
2015-Jan-22 10:31S 40°50' E 145°23'0 0.0
2015-Jan-22 09:31S 40°50' E 145°23'0 0.0
2015-Jan-22 08:31S 40°50' E 145°23'2 0.2
2015-Jan-21 19:07S 40°48' E 145°25'0 0.0
2015-Jan-21 16:31S 40°48' E 145°25'0 0.0
2015-Jan-21 13:16S 40°48' E 145°25'0 0.0
2015-Jan-21 12:31S 40°48' E 145°25'0 0.0
2015-Jan-21 11:31S 40°48' E 145°25'0 0.0
2015-Jan-21 10:31S 40°48' E 145°25'0 0.0
2015-Jan-21 09:31S 40°48' E 145°25'0 0.0
2015-Jan-21 08:31S 40°48' E 145°25'0 0.0
2015-Jan-21 07:31S 40°48' E 145°25'0 0.0
2015-Jan-21 06:31S 40°48' E 145°25'0 0.0
2015-Jan-20 07:25S 40°48' E 145°25'0 0.0
2015-Jan-20 06:31S 40°48' E 145°25'0 0.0
2015-Jan-20 05:31S 40°48' E 145°25'0 0.0
2015-Jan-20 04:31S 40°48' E 145°25'0 0.0
2015-Jan-20 03:28S 40°48' E 145°25'71 1.4
2015-Jan-18 00:30S 39°55' E 146°26'1010.4
2015-Jan-17 23:33S 39°47' E 146°35'1010.1
2015-Jan-17 22:33S 39°40' E 146°43'9 9.5
2015-Jan-17 21:33S 39°33' E 146°51'9 9.4
2015-Jan-17 20:33S 39°26' E 146°60'10 9.8
2015-Jan-17 19:33S 39°19' E 147°09'10 9.4
2015-Jan-17 18:31S 39°12' E 147°18'8 8.8
2015-Jan-17 17:33S 39°06' E 147°26'8 8.0
2015-Jan-17 16:33S 39°01' E 147°33'60 6.6
2015-Jan-17 07:23S 38°31' E 148°40'6 7.2
2015-Jan-17 06:33S 38°27' E 148°46'7 7.1
2015-Jan-17 05:33S 38°23' E 148°53'5 4.9
2015-Jan-17 04:33S 38°20' E 148°58'19 8.9
2015-Jan-17 02:23S 38°07' E 149°17'16210.9
2015-Jan-16 11:33S 35°44' E 150°53'1413.7
2015-Jan-16 10:33S 35°31' E 150°57'6913.5
2015-Jan-16 05:25S 34°26' E 151°24'1213.2
2015-Jan-16 04:33S 34°15' E 151°29'5112.3
2015-Jan-16 00:25S 33°27' E 151°47'1012.2
2015-Jan-15 23:33S 33°17' E 151°52'1212.3
2015-Jan-15 22:34S 33°05' E 151°52'1110.5
2015-Jan-15 21:33S 32°55' E 151°48'2 1.8
2015-Jan-15 20:31S 32°54' E 151°46'0 0.0
2015-Jan-15 17:23S 32°54' E 151°46'0 0.0
2015-Jan-15 15:17S 32°54' E 151°46'0 0.0
2015-Jan-15 14:29S 32°54' E 151°46'0 0.0
2015-Jan-15 13:23S 32°54' E 151°46'0 0.0
2015-Jan-15 12:29S 32°54' E 151°46'0 0.0
2015-Jan-15 11:29S 32°54' E 151°46'0 0.0
2015-Jan-15 10:23S 32°54' E 151°46'0 0.0
2015-Jan-15 09:32S 32°54' E 151°46'0 0.0
2015-Jan-15 08:32S 32°54' E 151°46'0 0.0
2015-Jan-15 07:32S 32°54' E 151°46'0 0.0
2015-Jan-15 06:29S 32°54' E 151°46'0 0.0
2015-Jan-15 05:23S 32°54' E 151°46'0 0.0
2015-Jan-15 04:32S 32°54' E 151°46'0 0.0
2015-Jan-15 03:29S 32°54' E 151°46'0 0.0
2015-Jan-15 02:17S 32°54' E 151°46'0 0.0
2015-Jan-15 01:32S 32°54' E 151°46'0 0.0
2015-Jan-15 00:32S 32°54' E 151°46'0 0.0
2015-Jan-14 23:32S 32°54' E 151°46'0 0.0
2015-Jan-14 22:26S 32°54' E 151°46'0 0.0
2015-Jan-14 21:32S 32°54' E 151°46'0 0.0
2015-Jan-14 20:32S 32°54' E 151°46'0 0.0
2015-Jan-14 19:26S 32°54' E 151°46'0 0.0
2015-Jan-14 18:23S 32°54' E 151°46'0 0.0
2015-Jan-14 17:32S 32°54' E 151°46'0 0.0
2015-Jan-14 16:23S 32°54' E 151°46'0 0.0
2015-Jan-14 15:32S 32°54' E 151°46'0 0.0
2015-Jan-14 14:32S 32°54' E 151°46'0 0.0
2015-Jan-14 13:29S 32°54' E 151°46'0 0.0
2015-Jan-14 12:29S 32°54' E 151°46'0 0.0
2015-Jan-14 11:29S 32°54' E 151°46'0 0.0
2015-Jan-14 10:32S 32°54' E 151°46'0 0.0
2015-Jan-14 09:29S 32°54' E 151°46'  

Dump ship's entire track history